sensor_id;sensor_type;location;lat;lon;timestamp;pressure;altitude;pressure_sealevel;temperature;humidity
6096;BME280;25081;42.698;23.298;2024-02-04T00:00:11;95688.22;;;6.79;69.69
6096;BME280;25081;42.698;23.298;2024-02-04T00:02:20;95688.82;;;6.70;69.92
6096;BME280;25081;42.698;23.298;2024-02-04T00:04:29;95692.23;;;6.75;69.74
6096;BME280;25081;42.698;23.298;2024-02-04T00:06:38;95695.66;;;6.65;70.15
6096;BME280;25081;42.698;23.298;2024-02-04T00:08:47;95692.00;;;6.66;70.34
6096;BME280;25081;42.698;23.298;2024-02-04T00:10:56;95700.43;;;6.69;70.28
6096;BME280;25081;42.698;23.298;2024-02-04T00:13:05;95694.31;;;6.69;70.55
6096;BME280;25081;42.698;23.298;2024-02-04T00:15:14;95692.92;;;6.73;70.65
6096;BME280;25081;42.698;23.298;2024-02-04T00:17:23;95693.52;;;6.79;70.52
6096;BME280;25081;42.698;23.298;2024-02-04T00:19:32;95690.88;;;6.79;70.56
6096;BME280;25081;42.698;23.298;2024-02-04T00:21:41;95690.56;;;6.78;70.65
6096;BME280;25081;42.698;23.298;2024-02-04T00:23:50;95698.45;;;6.82;70.50
6096;BME280;25081;42.698;23.298;2024-02-04T00:25:59;95696.48;;;6.80;70.68
6096;BME280;25081;42.698;23.298;2024-02-04T00:28:08;95694.56;;;6.74;70.92
6096;BME280;25081;42.698;23.298;2024-02-04T00:30:17;95690.18;;;6.81;70.65
6096;BME280;25081;42.698;23.298;2024-02-04T00:32:26;95696.94;;;6.83;70.69
6096;BME280;25081;42.698;23.298;2024-02-04T00:34:36;95693.84;;;6.80;70.73
6096;BME280;25081;42.698;23.298;2024-02-04T00:36:45;95693.91;;;6.76;70.80
6096;BME280;25081;42.698;23.298;2024-02-04T00:38:54;95693.23;;;6.74;70.87
6096;BME280;25081;42.698;23.298;2024-02-04T00:41:03;95689.73;;;6.77;70.79
6096;BME280;25081;42.698;23.298;2024-02-04T00:43:12;95688.60;;;6.76;70.91
6096;BME280;25081;42.698;23.298;2024-02-04T00:45:21;95689.17;;;6.82;70.88
6096;BME280;25081;42.698;23.298;2024-02-04T00:47:30;95686.02;;;6.82;71.05
6096;BME280;25081;42.698;23.298;2024-02-04T00:49:39;95681.69;;;6.85;70.96
6096;BME280;25081;42.698;23.298;2024-02-04T00:51:48;95684.34;;;6.85;71.09
6096;BME280;25081;42.698;23.298;2024-02-04T00:53:57;95687.16;;;6.84;71.19
6096;BME280;25081;42.698;23.298;2024-02-04T00:56:07;95683.97;;;6.88;71.14
6096;BME280;25081;42.698;23.298;2024-02-04T00:58:16;95691.12;;;6.84;71.45
6096;BME280;25081;42.698;23.298;2024-02-04T01:00:25;95690.31;;;6.83;71.54
6096;BME280;25081;42.698;23.298;2024-02-04T01:02:34;95679.58;;;6.81;71.77
6096;BME280;25081;42.698;23.298;2024-02-04T01:04:43;95687.72;;;6.79;71.82
6096;BME280;25081;42.698;23.298;2024-02-04T01:06:52;95687.50;;;6.70;72.33
6096;BME280;25081;42.698;23.298;2024-02-04T01:09:00;95677.03;;;6.73;72.43
6096;BME280;25081;42.698;23.298;2024-02-04T01:11:10;95685.67;;;6.71;72.53
6096;BME280;25081;42.698;23.298;2024-02-04T01:13:19;95680.81;;;6.74;72.39
6096;BME280;25081;42.698;23.298;2024-02-04T01:15:28;95671.79;;;6.69;72.97
6096;BME280;25081;42.698;23.298;2024-02-04T01:17:37;95682.07;;;6.68;72.84
6096;BME280;25081;42.698;23.298;2024-02-04T01:19:46;95679.61;;;6.66;73.14
6096;BME280;25081;42.698;23.298;2024-02-04T01:21:55;95677.84;;;6.73;73.20
6096;BME280;25081;42.698;23.298;2024-02-04T01:24:04;95688.09;;;6.76;73.24
6096;BME280;25081;42.698;23.298;2024-02-04T01:26:13;95674.09;;;6.82;73.21
6096;BME280;25081;42.698;23.298;2024-02-04T01:28:22;95669.20;;;6.75;73.57
6096;BME280;25081;42.698;23.298;2024-02-04T01:30:31;95667.97;;;6.82;73.62
6096;BME280;25081;42.698;23.298;2024-02-04T01:32:40;95668.29;;;6.83;73.60
6096;BME280;25081;42.698;23.298;2024-02-04T01:34:49;95658.57;;;6.79;73.94
6096;BME280;25081;42.698;23.298;2024-02-04T01:36:58;95657.37;;;6.82;73.93
6096;BME280;25081;42.698;23.298;2024-02-04T01:39:07;95652.89;;;6.82;73.91
6096;BME280;25081;42.698;23.298;2024-02-04T01:41:16;95658.57;;;6.79;74.06
6096;BME280;25081;42.698;23.298;2024-02-04T01:43:25;95653.52;;;6.84;74.10
6096;BME280;25081;42.698;23.298;2024-02-04T01:45:34;95660.43;;;6.89;74.02
6096;BME280;25081;42.698;23.298;2024-02-04T01:47:43;95650.45;;;6.92;73.83
6096;BME280;25081;42.698;23.298;2024-02-04T01:49:52;95652.60;;;6.92;73.81
6096;BME280;25081;42.698;23.298;2024-02-04T01:52:01;95649.03;;;7.00;73.69
6096;BME280;25081;42.698;23.298;2024-02-04T01:54:10;95649.93;;;7.07;73.55
6096;BME280;25081;42.698;23.298;2024-02-04T01:56:19;95648.34;;;7.12;73.22
6096;BME280;25081;42.698;23.298;2024-02-04T01:58:27;95649.44;;;7.18;72.90
6096;BME280;25081;42.698;23.298;2024-02-04T02:00:36;95650.19;;;7.23;73.01
6096;BME280;25081;42.698;23.298;2024-02-04T02:02:46;95645.39;;;7.33;72.72
6096;BME280;25081;42.698;23.298;2024-02-04T02:04:54;95649.37;;;7.33;72.79
6096;BME280;25081;42.698;23.298;2024-02-04T02:07:03;95653.35;;;7.33;72.77
6096;BME280;25081;42.698;23.298;2024-02-04T02:09:12;95652.92;;;7.29;73.03
6096;BME280;25081;42.698;23.298;2024-02-04T02:11:23;95649.25;;;7.30;73.19
6096;BME280;25081;42.698;23.298;2024-02-04T02:13:32;95652.61;;;7.28;73.32
6096;BME280;25081;42.698;23.298;2024-02-04T02:15:43;95648.55;;;7.32;73.19
6096;BME280;25081;42.698;23.298;2024-02-04T02:17:52;95644.73;;;7.35;72.97
6096;BME280;25081;42.698;23.298;2024-02-04T02:20:01;95642.31;;;7.29;73.17
6096;BME280;25081;42.698;23.298;2024-02-04T02:22:11;95656.08;;;7.29;73.28
6096;BME280;25081;42.698;23.298;2024-02-04T02:24:33;95643.02;;;7.27;73.30
6096;BME280;25081;42.698;23.298;2024-02-04T02:26:42;95647.23;;;7.32;73.04
6096;BME280;25081;42.698;23.298;2024-02-04T02:28:51;95636.58;;;7.36;72.91
6096;BME280;25081;42.698;23.298;2024-02-04T02:31:00;95635.37;;;7.28;73.02
6096;BME280;25081;42.698;23.298;2024-02-04T02:33:09;95642.23;;;7.33;72.98
6096;BME280;25081;42.698;23.298;2024-02-04T02:35:18;95639.93;;;7.34;73.02
6096;BME280;25081;42.698;23.298;2024-02-04T02:37:29;95634.05;;;7.39;72.78
6096;BME280;25081;42.698;23.298;2024-02-04T02:39:38;95643.25;;;7.32;72.95
6096;BME280;25081;42.698;23.298;2024-02-04T02:41:46;95630.14;;;7.35;72.95
6096;BME280;25081;42.698;23.298;2024-02-04T02:43:54;95638.26;;;7.33;72.90
6096;BME280;25081;42.698;23.298;2024-02-04T02:46:04;95638.14;;;7.31;73.09
6096;BME280;25081;42.698;23.298;2024-02-04T02:48:12;95629.32;;;7.34;72.85
6096;BME280;25081;42.698;23.298;2024-02-04T02:50:21;95639.34;;;7.39;72.69
6096;BME280;25081;42.698;23.298;2024-02-04T02:52:30;95623.51;;;7.45;72.51
6096;BME280;25081;42.698;23.298;2024-02-04T02:54:40;95624.95;;;7.37;72.57
6096;BME280;25081;42.698;23.298;2024-02-04T02:56:48;95628.16;;;7.33;72.84
6096;BME280;25081;42.698;23.298;2024-02-04T02:58:58;95617.94;;;7.40;72.46
6096;BME280;25081;42.698;23.298;2024-02-04T03:01:07;95623.52;;;7.35;72.67
6096;BME280;25081;42.698;23.298;2024-02-04T03:03:16;95621.67;;;7.35;72.76
6096;BME280;25081;42.698;23.298;2024-02-04T03:05:25;95628.55;;;7.40;72.65
6096;BME280;25081;42.698;23.298;2024-02-04T03:07:34;95611.30;;;7.40;72.56
6096;BME280;25081;42.698;23.298;2024-02-04T03:09:45;95627.68;;;7.44;72.63
6096;BME280;25081;42.698;23.298;2024-02-04T03:11:53;95620.27;;;7.39;72.87
6096;BME280;25081;42.698;23.298;2024-02-04T03:14:02;95629.05;;;7.40;72.87
6096;BME280;25081;42.698;23.298;2024-02-04T03:16:12;95617.70;;;7.35;73.18
6096;BME280;25081;42.698;23.298;2024-02-04T03:18:21;95614.97;;;7.39;73.09
6096;BME280;25081;42.698;23.298;2024-02-04T03:20:29;95608.41;;;7.46;72.96
6096;BME280;25081;42.698;23.298;2024-02-04T03:22:38;95615.66;;;7.48;72.92
6096;BME280;25081;42.698;23.298;2024-02-04T03:24:47;95617.42;;;7.52;73.07
6096;BME280;25081;42.698;23.298;2024-02-04T03:26:56;95606.88;;;7.58;72.69
6096;BME280;25081;42.698;23.298;2024-02-04T03:29:05;95603.78;;;7.65;72.49
6096;BME280;25081;42.698;23.298;2024-02-04T03:31:21;95609.27;;;7.74;72.25
6096;BME280;25081;42.698;23.298;2024-02-04T03:33:30;95607.74;;;7.76;72.21
6096;BME280;25081;42.698;23.298;2024-02-04T03:35:38;95599.39;;;7.79;72.27
6096;BME280;25081;42.698;23.298;2024-02-04T03:37:47;95600.72;;;7.79;72.21
6096;BME280;25081;42.698;23.298;2024-02-04T03:39:56;95603.77;;;7.76;72.30
6096;BME280;25081;42.698;23.298;2024-02-04T03:42:06;95604.33;;;7.71;72.36
6096;BME280;25081;42.698;23.298;2024-02-04T03:44:14;95595.94;;;7.68;72.34
6096;BME280;25081;42.698;23.298;2024-02-04T03:46:24;95586.53;;;7.65;72.38
6096;BME280;25081;42.698;23.298;2024-02-04T03:48:33;95583.26;;;7.63;72.49
6096;BME280;25081;42.698;23.298;2024-02-04T03:50:42;95579.22;;;7.57;72.66
6096;BME280;25081;42.698;23.298;2024-02-04T03:52:51;95582.13;;;7.40;73.31
6096;BME280;25081;42.698;23.298;2024-02-04T03:55:00;95575.81;;;7.41;73.18
6096;BME280;25081;42.698;23.298;2024-02-04T03:57:09;95538.28;;;7.16;73.13
6096;BME280;25081;42.698;23.298;2024-02-04T03:59:19;95590.79;;;7.38;73.27
6096;BME280;25081;42.698;23.298;2024-02-04T04:01:27;95591.84;;;7.33;73.60
6096;BME280;25081;42.698;23.298;2024-02-04T04:03:36;95595.01;;;7.33;73.67
6096;BME280;25081;42.698;23.298;2024-02-04T04:05:45;95602.02;;;7.40;73.44
6096;BME280;25081;42.698;23.298;2024-02-04T04:07:54;95598.31;;;7.45;73.46
6096;BME280;25081;42.698;23.298;2024-02-04T04:10:04;95616.06;;;7.34;73.81
6096;BME280;25081;42.698;23.298;2024-02-04T04:12:13;95602.22;;;7.28;74.25
6096;BME280;25081;42.698;23.298;2024-02-04T04:14:22;95601.02;;;7.31;74.25
6096;BME280;25081;42.698;23.298;2024-02-04T04:16:30;95600.81;;;7.32;74.28
6096;BME280;25081;42.698;23.298;2024-02-04T04:18:40;95597.30;;;7.46;74.07
6096;BME280;25081;42.698;23.298;2024-02-04T04:20:49;95596.28;;;7.48;74.07
6096;BME280;25081;42.698;23.298;2024-02-04T04:22:57;95602.67;;;7.53;73.93
6096;BME280;25081;42.698;23.298;2024-02-04T04:25:07;95583.59;;;7.54;73.84
6096;BME280;25081;42.698;23.298;2024-02-04T04:27:16;95595.69;;;7.52;73.89
6096;BME280;25081;42.698;23.298;2024-02-04T04:29:25;95597.98;;;7.55;73.65
6096;BME280;25081;42.698;23.298;2024-02-04T04:31:34;95603.52;;;7.60;73.71
6096;BME280;25081;42.698;23.298;2024-02-04T04:33:43;95606.05;;;7.68;73.36
6096;BME280;25081;42.698;23.298;2024-02-04T04:35:52;95603.08;;;7.67;73.27
6096;BME280;25081;42.698;23.298;2024-02-04T04:38:03;95604.33;;;7.71;72.94
6096;BME280;25081;42.698;23.298;2024-02-04T04:40:13;95598.26;;;7.78;72.58
6096;BME280;25081;42.698;23.298;2024-02-04T04:42:22;95604.58;;;7.77;72.87
6096;BME280;25081;42.698;23.298;2024-02-04T04:44:31;95602.67;;;7.92;72.68
6096;BME280;25081;42.698;23.298;2024-02-04T04:46:40;95600.97;;;7.84;72.72
6096;BME280;25081;42.698;23.298;2024-02-04T04:48:49;95599.84;;;7.83;73.03
6096;BME280;25081;42.698;23.298;2024-02-04T04:50:58;95599.53;;;7.99;72.90
6096;BME280;25081;42.698;23.298;2024-02-04T04:53:07;95603.63;;;8.12;72.61
6096;BME280;25081;42.698;23.298;2024-02-04T04:55:17;95605.52;;;8.08;72.55
6096;BME280;25081;42.698;23.298;2024-02-04T04:57:26;95611.05;;;7.95;72.61
6096;BME280;25081;42.698;23.298;2024-02-04T04:59:35;95604.53;;;7.98;72.64
6096;BME280;25081;42.698;23.298;2024-02-04T05:01:48;95608.85;;;7.88;72.86
6096;BME280;25081;42.698;23.298;2024-02-04T05:03:56;95550.26;;;7.62;72.74
6096;BME280;25081;42.698;23.298;2024-02-04T05:06:05;95595.33;;;7.94;73.16
6096;BME280;25081;42.698;23.298;2024-02-04T05:08:15;95597.30;;;8.13;72.58
6096;BME280;25081;42.698;23.298;2024-02-04T05:10:24;95593.84;;;8.19;71.95
6096;BME280;25081;42.698;23.298;2024-02-04T05:12:33;95599.16;;;8.02;72.15
6096;BME280;25081;42.698;23.298;2024-02-04T05:14:41;95594.39;;;8.08;73.74
6096;BME280;25081;42.698;23.298;2024-02-04T05:16:50;95601.98;;;8.11;72.31
6096;BME280;25081;42.698;23.298;2024-02-04T05:18:59;95602.58;;;7.96;72.29
6096;BME280;25081;42.698;23.298;2024-02-04T05:21:07;95605.68;;;8.17;72.13
6096;BME280;25081;42.698;23.298;2024-02-04T05:23:16;95595.77;;;8.32;71.82
6096;BME280;25081;42.698;23.298;2024-02-04T05:25:25;95612.32;;;8.17;73.98
6096;BME280;25081;42.698;23.298;2024-02-04T05:27:34;95603.80;;;8.28;72.29
6096;BME280;25081;42.698;23.298;2024-02-04T05:29:42;95606.00;;;7.90;72.33
6096;BME280;25081;42.698;23.298;2024-02-04T05:31:51;95606.14;;;7.92;72.73
6096;BME280;25081;42.698;23.298;2024-02-04T05:34:04;95613.06;;;8.04;72.33
6096;BME280;25081;42.698;23.298;2024-02-04T05:36:09;95610.97;;;7.99;72.37
6096;BME280;25081;42.698;23.298;2024-02-04T05:38:18;95611.73;;;8.04;72.02
6096;BME280;25081;42.698;23.298;2024-02-04T05:40:27;95609.13;;;8.00;72.10
6096;BME280;25081;42.698;23.298;2024-02-04T05:42:35;95603.08;;;8.23;71.12
6096;BME280;25081;42.698;23.298;2024-02-04T05:44:44;95604.52;;;8.26;70.58
6096;BME280;25081;42.698;23.298;2024-02-04T05:46:53;95603.02;;;8.17;70.67
6096;BME280;25081;42.698;23.298;2024-02-04T05:49:02;95595.52;;;8.10;70.87
6096;BME280;25081;42.698;23.298;2024-02-04T05:51:11;95618.31;;;7.97;71.18
6096;BME280;25081;42.698;23.298;2024-02-04T05:53:19;95611.63;;;8.01;70.88
6096;BME280;25081;42.698;23.298;2024-02-04T05:55:28;95610.12;;;8.10;70.53
6096;BME280;25081;42.698;23.298;2024-02-04T05:57:37;95611.11;;;8.02;70.53
6096;BME280;25081;42.698;23.298;2024-02-04T05:59:46;95609.77;;;8.19;69.91
6096;BME280;25081;42.698;23.298;2024-02-04T06:01:55;95619.95;;;7.98;70.29
6096;BME280;25081;42.698;23.298;2024-02-04T06:04:04;95619.41;;;7.92;70.54
6096;BME280;25081;42.698;23.298;2024-02-04T06:06:16;95625.72;;;8.02;70.14
6096;BME280;25081;42.698;23.298;2024-02-04T06:08:24;95627.20;;;8.00;69.96
6096;BME280;25081;42.698;23.298;2024-02-04T06:10:33;95630.45;;;7.96;70.07
6096;BME280;25081;42.698;23.298;2024-02-04T06:12:42;95623.56;;;7.91;70.29
6096;BME280;25081;42.698;23.298;2024-02-04T06:14:50;95618.09;;;7.92;70.33
6096;BME280;25081;42.698;23.298;2024-02-04T06:16:59;95620.88;;;7.84;70.77
6096;BME280;25081;42.698;23.298;2024-02-04T06:19:08;95629.97;;;7.86;70.57
6096;BME280;25081;42.698;23.298;2024-02-04T06:21:17;95632.00;;;7.84;70.85
6096;BME280;25081;42.698;23.298;2024-02-04T06:23:26;95632.55;;;7.90;70.80
6096;BME280;25081;42.698;23.298;2024-02-04T06:25:34;95637.60;;;7.95;70.60
6096;BME280;25081;42.698;23.298;2024-02-04T06:27:43;95636.84;;;7.91;70.91
6096;BME280;25081;42.698;23.298;2024-02-04T06:29:52;95650.00;;;7.88;70.21
6096;BME280;25081;42.698;23.298;2024-02-04T06:32:00;95650.62;;;7.90;70.09
6096;BME280;25081;42.698;23.298;2024-02-04T06:34:09;95663.45;;;7.97;69.75
6096;BME280;25081;42.698;23.298;2024-02-04T06:36:18;95661.25;;;8.01;69.80
6096;BME280;25081;42.698;23.298;2024-02-04T06:38:27;95653.93;;;8.10;69.42
6096;BME280;25081;42.698;23.298;2024-02-04T06:40:35;95654.19;;;8.15;69.22
6096;BME280;25081;42.698;23.298;2024-02-04T06:42:44;95665.80;;;8.24;69.23
6096;BME280;25081;42.698;23.298;2024-02-04T06:44:53;95659.72;;;8.30;68.95
6096;BME280;25081;42.698;23.298;2024-02-04T06:47:02;95656.35;;;8.43;68.63
6096;BME280;25081;42.698;23.298;2024-02-04T06:49:11;95663.81;;;8.44;68.65
6096;BME280;25081;42.698;23.298;2024-02-04T06:51:19;95659.08;;;8.56;68.18
6096;BME280;25081;42.698;23.298;2024-02-04T06:53:28;95660.14;;;8.62;68.07
6096;BME280;25081;42.698;23.298;2024-02-04T06:55:37;95653.28;;;8.81;67.65
6096;BME280;25081;42.698;23.298;2024-02-04T06:57:45;95663.52;;;8.84;67.43
6096;BME280;25081;42.698;23.298;2024-02-04T06:59:54;95656.68;;;8.68;67.99
6096;BME280;25081;42.698;23.298;2024-02-04T07:02:03;95659.13;;;8.63;68.25
6096;BME280;25081;42.698;23.298;2024-02-04T07:04:12;95664.03;;;8.66;68.11
6096;BME280;25081;42.698;23.298;2024-02-04T07:06:21;95665.56;;;8.65;68.09
6096;BME280;25081;42.698;23.298;2024-02-04T07:08:30;95661.89;;;8.66;68.15
6096;BME280;25081;42.698;23.298;2024-02-04T07:10:38;95635.05;;;8.37;68.24
6096;BME280;25081;42.698;23.298;2024-02-04T07:12:47;95679.61;;;8.69;68.18
6096;BME280;25081;42.698;23.298;2024-02-04T07:14:56;95662.48;;;8.78;68.01
6096;BME280;25081;42.698;23.298;2024-02-04T07:17:04;95669.48;;;8.93;67.57
6096;BME280;25081;42.698;23.298;2024-02-04T07:19:13;95668.98;;;9.17;66.69
6096;BME280;25081;42.698;23.298;2024-02-04T07:21:21;95665.52;;;9.23;66.40
6096;BME280;25081;42.698;23.298;2024-02-04T07:23:30;95663.19;;;9.31;66.02
6096;BME280;25081;42.698;23.298;2024-02-04T07:25:39;95666.13;;;9.18;66.45
6096;BME280;25081;42.698;23.298;2024-02-04T07:27:48;95667.82;;;9.39;66.05
6096;BME280;25081;42.698;23.298;2024-02-04T07:29:56;95660.55;;;9.44;65.38
6096;BME280;25081;42.698;23.298;2024-02-04T07:32:06;95659.98;;;9.25;65.97
6096;BME280;25081;42.698;23.298;2024-02-04T07:34:14;95674.86;;;9.30;66.12
6096;BME280;25081;42.698;23.298;2024-02-04T07:36:23;95663.77;;;9.26;66.37
6096;BME280;25081;42.698;23.298;2024-02-04T07:38:32;95662.65;;;9.18;66.24
6096;BME280;25081;42.698;23.298;2024-02-04T07:40:41;95660.70;;;9.23;66.39
6096;BME280;25081;42.698;23.298;2024-02-04T07:42:50;95655.92;;;9.29;66.00
6096;BME280;25081;42.698;23.298;2024-02-04T07:44:58;95652.88;;;9.45;65.20
6096;BME280;25081;42.698;23.298;2024-02-04T07:47:07;95664.55;;;9.44;65.00
6096;BME280;25081;42.698;23.298;2024-02-04T07:49:16;95664.08;;;9.58;64.51
6096;BME280;25081;42.698;23.298;2024-02-04T07:51:24;95660.83;;;9.75;63.78
6096;BME280;25081;42.698;23.298;2024-02-04T07:53:33;95666.38;;;10.14;62.71
6096;BME280;25081;42.698;23.298;2024-02-04T07:55:42;95662.34;;;11.02;59.79
6096;BME280;25081;42.698;23.298;2024-02-04T07:57:51;95654.15;;;12.73;54.68
6096;BME280;25081;42.698;23.298;2024-02-04T08:00:00;95656.52;;;13.96;49.99
6096;BME280;25081;42.698;23.298;2024-02-04T08:02:08;95649.84;;;14.41;47.65
6096;BME280;25081;42.698;23.298;2024-02-04T08:04:17;95644.55;;;15.70;45.49
6096;BME280;25081;42.698;23.298;2024-02-04T08:06:26;95650.31;;;16.92;41.53
6096;BME280;25081;42.698;23.298;2024-02-04T08:08:35;95642.70;;;15.59;44.72
6096;BME280;25081;42.698;23.298;2024-02-04T08:10:44;95665.30;;;12.70;51.22
6096;BME280;25081;42.698;23.298;2024-02-04T08:12:52;95664.22;;;11.56;54.83
6096;BME280;25081;42.698;23.298;2024-02-04T08:15:01;95655.06;;;11.61;55.37
6096;BME280;25081;42.698;23.298;2024-02-04T08:17:10;95654.19;;;11.13;56.86
6096;BME280;25081;42.698;23.298;2024-02-04T08:19:18;95654.15;;;11.42;56.51
6096;BME280;25081;42.698;23.298;2024-02-04T08:21:27;95646.92;;;13.47;50.60
6096;BME280;25081;42.698;23.298;2024-02-04T08:23:36;95643.45;;;16.14;44.40
6096;BME280;25081;42.698;23.298;2024-02-04T08:25:45;95630.80;;;15.98;43.06
6096;BME280;25081;42.698;23.298;2024-02-04T08:27:53;95642.56;;;15.11;45.95
6096;BME280;25081;42.698;23.298;2024-02-04T08:30:02;95639.73;;;14.22;46.80
6096;BME280;25081;42.698;23.298;2024-02-04T08:32:11;95651.88;;;12.43;52.14
6096;BME280;25081;42.698;23.298;2024-02-04T08:34:20;95644.03;;;13.12;51.47
6096;BME280;25081;42.698;23.298;2024-02-04T08:36:29;95644.91;;;12.42;52.30
6096;BME280;25081;42.698;23.298;2024-02-04T08:38:38;95651.55;;;12.23;53.38
6096;BME280;25081;42.698;23.298;2024-02-04T08:40:47;95651.80;;;11.21;56.81
6096;BME280;25081;42.698;23.298;2024-02-04T08:42:56;95645.12;;;10.63;59.07
6096;BME280;25081;42.698;23.298;2024-02-04T08:45:06;95644.25;;;10.82;58.78
6096;BME280;25081;42.698;23.298;2024-02-04T08:47:14;95642.89;;;10.53;59.88
6096;BME280;25081;42.698;23.298;2024-02-04T08:49:23;95629.84;;;12.13;55.46
6096;BME280;25081;42.698;23.298;2024-02-04T08:51:32;95658.84;;;12.78;52.59
6096;BME280;25081;42.698;23.298;2024-02-04T08:53:41;95655.95;;;12.27;53.63
6096;BME280;25081;42.698;23.298;2024-02-04T08:55:49;95667.69;;;11.63;55.80
6096;BME280;25081;42.698;23.298;2024-02-04T08:57:58;95663.41;;;11.39;57.24
6096;BME280;25081;42.698;23.298;2024-02-04T09:00:08;95664.71;;;11.62;56.68
6096;BME280;25081;42.698;23.298;2024-02-04T09:02:18;95671.08;;;11.99;55.86
6096;BME280;25081;42.698;23.298;2024-02-04T09:04:27;95683.83;;;11.81;56.10
6096;BME280;25081;42.698;23.298;2024-02-04T09:06:36;95677.73;;;11.45;57.04
6096;BME280;25081;42.698;23.298;2024-02-04T09:08:44;95676.56;;;11.34;57.75
6096;BME280;25081;42.698;23.298;2024-02-04T09:10:53;95675.03;;;11.07;58.64
6096;BME280;25081;42.698;23.298;2024-02-04T09:13:01;95686.58;;;10.94;58.77
6096;BME280;25081;42.698;23.298;2024-02-04T09:15:11;95687.97;;;10.61;59.96
6096;BME280;25081;42.698;23.298;2024-02-04T09:17:19;95693.30;;;10.81;59.90
6096;BME280;25081;42.698;23.298;2024-02-04T09:19:28;95691.70;;;10.89;59.63
6096;BME280;25081;42.698;23.298;2024-02-04T09:21:37;95701.30;;;10.68;60.13
6096;BME280;25081;42.698;23.298;2024-02-04T09:23:45;95698.36;;;10.47;60.92
6096;BME280;25081;42.698;23.298;2024-02-04T09:25:54;95692.09;;;10.50;60.96
6096;BME280;25081;42.698;23.298;2024-02-04T09:28:03;95710.97;;;10.55;60.94
6096;BME280;25081;42.698;23.298;2024-02-04T09:30:13;95712.92;;;10.38;61.44
6096;BME280;25081;42.698;23.298;2024-02-04T09:32:22;95709.22;;;10.32;61.80
6096;BME280;25081;42.698;23.298;2024-02-04T09:34:31;95715.80;;;10.43;61.41
6096;BME280;25081;42.698;23.298;2024-02-04T09:36:40;95719.38;;;10.46;61.67
6096;BME280;25081;42.698;23.298;2024-02-04T09:38:48;95719.42;;;11.46;58.82
6096;BME280;25081;42.698;23.298;2024-02-04T09:40:57;95716.99;;;12.30;56.51
6096;BME280;25081;42.698;23.298;2024-02-04T09:43:06;95698.48;;;13.91;51.94
6096;BME280;25081;42.698;23.298;2024-02-04T09:45:14;95692.16;;;16.01;45.80
6096;BME280;25081;42.698;23.298;2024-02-04T09:47:23;95691.67;;;17.02;43.91
6096;BME280;25081;42.698;23.298;2024-02-04T09:49:32;95696.59;;;14.89;47.35
6096;BME280;25081;42.698;23.298;2024-02-04T09:51:41;95702.95;;;13.79;50.62
6096;BME280;25081;42.698;23.298;2024-02-04T09:53:51;95718.64;;;13.93;51.24
6096;BME280;25081;42.698;23.298;2024-02-04T09:55:59;95693.11;;;15.26;47.71
6096;BME280;25081;42.698;23.298;2024-02-04T09:58:08;95683.23;;;16.96;44.25
6096;BME280;25081;42.698;23.298;2024-02-04T10:00:18;95665.92;;;17.31;42.46
6096;BME280;25081;42.698;23.298;2024-02-04T10:02:25;95660.83;;;19.06;38.94
6096;BME280;25081;42.698;23.298;2024-02-04T10:04:34;95668.61;;;14.41;48.87
6096;BME280;25081;42.698;23.298;2024-02-04T10:06:43;95668.61;;;14.41;48.87
6096;BME280;25081;42.698;23.298;2024-02-04T10:08:51;95674.03;;;15.94;46.48
6096;BME280;25081;42.698;23.298;2024-02-04T10:11:00;95683.52;;;15.30;46.76
6096;BME280;25081;42.698;23.298;2024-02-04T10:13:09;95680.94;;;16.52;45.02
6096;BME280;25081;42.698;23.298;2024-02-04T10:15:18;95685.47;;;15.46;46.60
6096;BME280;25081;42.698;23.298;2024-02-04T10:17:27;95686.58;;;13.48;52.47
6096;BME280;25081;42.698;23.298;2024-02-04T10:19:35;95700.40;;;12.89;54.42
6096;BME280;25081;42.698;23.298;2024-02-04T10:21:44;95707.30;;;12.79;55.28
6096;BME280;25081;42.698;23.298;2024-02-04T10:23:53;95708.45;;;12.30;56.69
6096;BME280;25081;42.698;23.298;2024-02-04T10:26:01;95700.89;;;12.12;57.86
6096;BME280;25081;42.698;23.298;2024-02-04T10:28:10;95693.66;;;12.53;56.63
6096;BME280;25081;42.698;23.298;2024-02-04T10:30:20;95691.92;;;12.40;56.97
6096;BME280;25081;42.698;23.298;2024-02-04T10:32:29;95700.24;;;11.85;58.59
6096;BME280;25081;42.698;23.298;2024-02-04T10:34:38;95695.01;;;11.87;58.84
6096;BME280;25081;42.698;23.298;2024-02-04T10:36:47;95686.19;;;11.58;60.05
6096;BME280;25081;42.698;23.298;2024-02-04T10:38:56;95678.45;;;11.50;60.84
6096;BME280;25081;42.698;23.298;2024-02-04T10:41:05;95674.00;;;11.08;62.11
6096;BME280;25081;42.698;23.298;2024-02-04T10:43:13;95687.34;;;11.08;62.69
6096;BME280;25081;42.698;23.298;2024-02-04T10:45:22;95690.95;;;11.04;62.40
6096;BME280;25081;42.698;23.298;2024-02-04T10:47:32;95695.94;;;11.16;62.12
6096;BME280;25081;42.698;23.298;2024-02-04T10:49:41;95675.25;;;11.05;62.39
6096;BME280;25081;42.698;23.298;2024-02-04T10:51:49;95673.41;;;10.99;62.79
6096;BME280;25081;42.698;23.298;2024-02-04T10:53:58;95678.34;;;11.02;62.89
6096;BME280;25081;42.698;23.298;2024-02-04T10:56:07;95684.50;;;11.03;62.92
6096;BME280;25081;42.698;23.298;2024-02-04T10:58:16;95696.13;;;11.22;62.14
6096;BME280;25081;42.698;23.298;2024-02-04T11:00:25;95692.00;;;10.90;63.21
6096;BME280;25081;42.698;23.298;2024-02-04T11:02:34;95685.47;;;10.86;63.30
6096;BME280;25081;42.698;23.298;2024-02-04T11:04:42;95682.88;;;10.95;62.87
6096;BME280;25081;42.698;23.298;2024-02-04T11:06:51;95684.18;;;10.66;63.67
6096;BME280;25081;42.698;23.298;2024-02-04T11:09:00;95673.25;;;10.87;63.09
6096;BME280;25081;42.698;23.298;2024-02-04T11:11:08;95668.48;;;10.74;63.23
6096;BME280;25081;42.698;23.298;2024-02-04T11:13:17;95678.76;;;10.64;63.73
6096;BME280;25081;42.698;23.298;2024-02-04T11:15:26;95676.73;;;10.88;63.35
6096;BME280;25081;42.698;23.298;2024-02-04T11:20:43;95666.19;;;11.13;62.21
6096;BME280;25081;42.698;23.298;2024-02-04T11:27:55;95663.99;;;11.19;62.08
6096;BME280;25081;42.698;23.298;2024-02-04T11:30:06;95665.80;;;11.47;61.09
6096;BME280;25081;42.698;23.298;2024-02-04T11:32:16;95664.00;;;11.57;60.67
6096;BME280;25081;42.698;23.298;2024-02-04T11:34:24;95658.61;;;11.48;61.01
6096;BME280;25081;42.698;23.298;2024-02-04T11:36:38;95654.47;;;11.59;60.69